Time;durP1;ratioP1;P1;durP2;ratioP2;P2;SDS_P1;SDS_P2;PMS_P1;PMS_P2;Temp;Humidity;BMP_temperature;BMP_pressure;BME280_temperature;BME280_humidity;BME280_pressure;Samples;Min_cycle;Max_cycle;Signal;HPM_P1;HPM_P2
2022/08/26 00:01:51;;;;;;;8.88;5.50;;;;;;;18.52;87.21;101520.03;7381697;19;20015;-66
2022/08/26 00:04:20;;;;;;;7.15;4.25;;;;;;;18.48;87.05;101519.59;7376184;19;20340;-66
2022/08/26 00:06:47;;;;;;;9.23;4.93;;;;;;;18.46;87.70;101526.09;7381064;19;20018;-66
2022/08/26 00:09:13;;;;;;;10.15;4.90;;;;;;;18.42;87.95;101520.31;7380286;19;20481;-66
2022/08/26 00:11:43;;;;;;;7.90;4.72;;;;;;;18.40;87.96;101519.66;7382362;19;20024;-65
2022/08/26 00:14:12;;;;;;;8.65;4.88;;;;;;;18.39;88.11;101516.19;7381892;19;20353;-64
2022/08/26 00:16:40;;;;;;;9.23;4.93;;;;;;;18.40;88.11;101519.66;7382255;19;20512;-63
2022/08/26 00:19:18;;;;;;;10.00;5.95;;;;;;;18.38;88.41;101519.88;7379645;19;20007;-63
2022/08/26 00:21:46;;;;;;;10.27;5.68;;;;;;;18.35;88.45;101519.41;7382467;19;20022;-64
2022/08/26 00:24:18;;;;;;;11.60;6.28;;;;;;;18.33;89.18;101516.94;7380442;19;20083;-64
2022/08/26 00:26:46;;;;;;;9.57;5.63;;;;;;;18.33;89.35;101513.47;7382373;19;20014;-65
2022/08/26 00:29:13;;;;;;;11.27;6.75;;;;;;;18.34;88.96;101517.75;7378884;19;20113;-64
2022/08/26 00:31:40;;;;;;;10.23;6.20;;;;;;;18.36;88.37;101526.41;7382030;19;20018;-64
2022/08/26 00:34:08;;;;;;;10.70;6.28;;;;;;;18.35;87.68;101522.06;7379026;19;20026;-65
2022/08/26 00:36:38;;;;;;;11.25;6.18;;;;;;;18.33;88.10;101522.28;7382148;19;20316;-64
2022/08/26 00:39:06;;;;;;;11.30;6.40;;;;;;;18.33;87.82;101524.94;7378267;19;20081;-64
2022/08/26 00:41:36;;;;;;;12.20;6.40;;;;;;;18.31;88.42;101534.13;7381108;19;20021;-64
2022/08/26 00:44:04;;;;;;;9.35;6.28;;;;;;;18.27;88.44;101528.34;7381060;19;20365;-63
2022/08/26 00:46:36;;;;;;;11.30;6.25;;;;;;;18.29;88.25;101531.63;7384715;19;20447;-62
2022/08/26 00:49:08;;;;;;;12.38;6.60;;;;;;;18.26;87.78;101526.69;7386809;19;20407;-66
2022/08/26 00:51:51;;;;;;;11.63;6.57;;;;;;;18.22;88.18;101532.56;7387660;19;20024;-66
2022/08/26 00:54:21;;;;;;;10.98;6.25;;;;;;;18.18;88.45;101532.13;7387714;19;20022;-66
2022/08/26 00:56:58;;;;;;;12.32;7.03;;;;;;;18.17;88.20;101533.13;7390756;19;20098;-66
2022/08/26 00:59:28;;;;;;;12.48;7.85;;;;;;;18.17;88.36;101532.31;7389811;19;20301;-66
2022/08/26 01:01:59;;;;;;;10.25;6.63;;;;;;;18.16;88.36;101530.66;7390427;19;20037;-66
2022/08/26 01:04:30;;;;;;;10.55;7.35;;;;;;;18.14;88.66;101530.81;7382192;19;20014;-66
2022/08/26 01:06:58;;;;;;;12.48;7.20;;;;;;;18.08;88.64;101526.22;7389151;19;20232;-66
2022/08/26 01:09:25;;;;;;;12.00;7.15;;;;;;;18.06;88.63;101522.94;7386686;19;20022;-64
2022/08/26 01:11:56;;;;;;;11.25;6.45;;;;;;;18.00;89.17;101520.19;7391570;19;20146;-65
2022/08/26 01:14:27;;;;;;;13.18;7.35;;;;;;;17.98;89.07;101517.69;7387333;19;20081;-65
2022/08/26 01:16:54;;;;;;;16.23;8.88;;;;;;;17.97;89.12;101524.06;7390691;19;20481;-66
2022/08/26 01:19:30;;;;;;;14.00;8.23;;;;;;;17.94;89.70;101525.22;7385346;19;20014;-65
2022/08/26 01:22:17;;;;;;;11.98;7.10;;;;;;;17.94;90.33;101527.06;7390798;19;20025;-65
2022/08/26 01:24:46;;;;;;;14.93;7.88;;;;;;;17.95;90.54;101526.88;7385555;19;20040;-65
2022/08/26 01:27:17;;;;;;;13.00;7.10;;;;;;;17.97;89.99;101528.53;7388240;19;20018;-66
2022/08/26 01:29:47;;;;;;;16.20;7.32;;;;;;;17.99;89.93;101535.31;7389678;19;20368;-66
2022/08/26 01:32:18;;;;;;;13.15;7.15;;;;;;;17.99;90.17;101527.34;7387848;19;20339;-65
2022/08/26 01:34:46;;;;;;;13.25;7.40;;;;;;;18.02;89.97;101527.00;7384232;19;20025;-66
2022/08/26 01:37:17;;;;;;;10.95;6.85;;;;;;;18.04;89.54;101522.28;7388325;19;20031;-65
2022/08/26 01:39:49;;;;;;;11.43;6.47;;;;;;;18.01;89.22;101525.31;7384144;19;20078;-66
2022/08/26 01:42:19;;;;;;;12.05;6.15;;;;;;;17.98;89.53;101522.22;7389310;19;20066;-64
2022/08/26 01:45:08;;;;;;;14.68;7.10;;;;;;;17.98;89.96;101531.00;7386254;19;20388;-64
2022/08/26 01:47:36;;;;;;;11.80;6.15;;;;;;;17.99;90.11;101527.34;7382562;19;20291;-64
2022/08/26 01:50:09;;;;;;;9.30;6.03;;;;;;;17.98;89.84;101531.00;7385685;19;20033;-63
2022/08/26 01:52:43;;;;;;;11.75;6.05;;;;;;;18.02;89.64;101534.16;7388249;19;20033;-66
2022/08/26 01:55:17;;;;;;;11.02;6.28;;;;;;;17.99;89.58;101534.50;7384165;19;20018;-63
2022/08/26 01:58:06;;;;;;;13.45;6.38;;;;;;;17.98;90.01;101538.19;7386347;19;20030;-63
2022/08/26 02:00:34;;;;;;;12.27;6.35;;;;;;;17.98;89.90;101536.34;7387531;19;20026;-63
2022/08/26 02:03:16;;;;;;;8.18;5.55;;;;;;;18.00;89.78;101528.16;7388042;19;20022;-63
2022/08/26 02:05:56;;;;;;;9.82;5.32;;;;;;;18.03;88.14;101536.59;7382054;19;20040;-67
2022/08/26 02:08:31;;;;;;;8.95;5.88;;;;;;;17.99;88.02;101542.50;7388182;19;20026;-63
2022/08/26 02:10:58;;;;;;;10.18;5.68;;;;;;;17.95;88.76;101542.88;7386771;19;20011;-64
2022/08/26 02:13:28;;;;;;;10.25;6.03;;;;;;;17.91;89.09;101541.59;7384333;19;20046;-63
2022/08/26 02:15:57;;;;;;;9.70;5.35;;;;;;;17.92;89.51;101537.91;7388073;19;20011;-62
2022/08/26 02:18:25;;;;;;;9.63;5.60;;;;;;;17.94;89.51;101529.72;7385921;19;20030;-63
2022/08/26 02:20:54;;;;;;;10.50;5.85;;;;;;;17.92;88.73;101532.59;7384760;19;20283;-64
2022/08/26 02:23:22;;;;;;;9.60;5.10;;;;;;;17.92;88.71;101527.25;7387196;19;20519;-63
2022/08/26 02:26:10;;;;;;;10.85;5.15;;;;;;;17.92;88.15;101529.94;7386109;19;20033;-63
2022/08/26 02:28:57;;;;;;;10.00;4.78;;;;;;;17.90;87.46;101537.25;7385676;19;20088;-63
2022/08/26 02:31:24;;;;;;;9.53;5.03;;;;;;;17.85;88.14;101539.66;7387548;19;20078;-63
2022/08/26 02:33:51;;;;;;;9.15;5.53;;;;;;;17.83;88.60;101538.16;7384854;19;20011;-64
2022/08/26 02:36:23;;;;;;;9.85;4.88;;;;;;;17.84;88.61;101531.84;7385092;19;20096;-63
2022/08/26 02:38:54;;;;;;;8.77;4.80;;;;;;;17.80;88.02;101534.03;7383078;19;20022;-63
2022/08/26 02:41:22;;;;;;;8.65;4.60;;;;;;;17.79;88.29;101527.06;7387413;19;20022;-63
2022/08/26 02:43:50;;;;;;;8.95;3.97;;;;;;;17.80;87.83;101525.22;7384949;19;20019;-63
2022/08/26 02:46:17;;;;;;;9.18;4.78;;;;;;;17.77;87.72;101531.75;7387991;19;20135;-64
2022/08/26 02:48:53;;;;;;;9.85;4.35;;;;;;;17.74;88.06;101539.25;7382418;19;20014;-64
2022/08/26 02:51:20;;;;;;;9.95;4.05;;;;;;;17.74;88.40;101532.09;7382925;19;20163;-63
2022/08/26 02:53:47;;;;;;;10.60;4.75;;;;;;;17.73;87.74;101540.25;7385282;19;20010;-63
2022/08/26 02:56:14;;;;;;;9.65;4.63;;;;;;;17.73;87.83;101533.09;7385281;19;20021;-63
2022/08/26 02:58:41;;;;;;;7.80;4.72;;;;;;;17.72;87.70;101536.81;7383515;19;20141;-63
2022/08/26 03:01:19;;;;;;;8.25;4.75;;;;;;;17.73;87.60;101537.59;7385672;19;20018;-64
2022/08/26 03:03:47;;;;;;;8.18;4.30;;;;;;;17.70;87.68;101537.97;7385444;19;20038;-63
2022/08/26 03:06:15;;;;;;;9.38;4.47;;;;;;;17.71;87.89;101534.31;7383679;19;20014;-64
2022/08/26 03:08:42;;;;;;;8.07;4.97;;;;;;;17.69;87.49;101536.31;7383575;19;20021;-63
2022/08/26 03:11:10;;;;;;;12.98;4.57;;;;;;;17.67;87.63;101533.03;7384452;19;20036;-62
2022/08/26 03:13:37;;;;;;;7.78;4.55;;;;;;;17.66;87.71;101542.03;7385144;19;20014;-65
2022/08/26 03:16:05;;;;;;;8.48;4.57;;;;;;;17.67;87.82;101538.34;7385039;19;20070;-64
2022/08/26 03:18:32;;;;;;;9.70;4.45;;;;;;;17.66;87.59;101545.50;7384594;19;20348;-65
2022/08/26 03:21:09;;;;;;;10.23;3.80;;;;;;;17.66;87.34;101556.16;7382180;19;20469;-66
2022/08/26 03:23:38;;;;;;;12.32;5.13;;;;;;;17.63;86.62;101543.19;7384223;19;20015;-66
2022/08/26 03:26:06;;;;;;;8.32;4.57;;;;;;;17.62;86.69;101548.72;7384389;19;20339;-66
2022/08/26 03:30:38;;;;;;;8.75;4.53;;;;;;;17.61;86.35;101545.22;7383363;19;20037;-66
2022/08/26 03:31:24;;;;;;;10.32;4.47;;;;;;;17.60;86.73;101551.56;7385537;19;20014;-66
2022/08/26 03:33:51;;;;;;;9.65;4.50;;;;;;;17.61;87.44;101547.88;7382939;19;20011;-64
2022/08/26 03:36:24;;;;;;;;;;;;;;;17.63;87.74;101548.50;7385728;19;20765;-64
2022/08/26 03:38:51;;;;;;;6.95;4.57;;;;;;;17.62;88.50;101552.22;7381466;19;20322;-64
2022/08/26 03:41:21;;;;;;;9.07;4.72;;;;;;;17.64;88.51;101538.69;7384220;19;20019;-64
2022/08/26 03:43:49;;;;;;;8.23;4.38;;;;;;;17.64;88.03;101536.88;7383345;19;20660;-64
2022/08/26 03:46:19;;;;;;;8.15;4.68;;;;;;;17.64;88.20;101552.00;7385392;19;20010;-64
2022/08/26 03:48:46;;;;;;;10.25;5.47;;;;;;;17.63;88.18;101551.19;7384004;19;20038;-66
2022/08/26 03:51:18;;;;;;;11.40;5.50;;;;;;;17.61;88.85;101557.72;7383354;19;20017;-66
2022/08/26 03:53:47;;;;;;;8.77;4.80;;;;;;;17.61;89.29;101547.06;7382187;19;20023;-66
2022/08/26 03:56:14;;;;;;;11.05;5.57;;;;;;;17.57;88.93;101546.56;7384520;19;20413;-65
2022/08/26 03:58:43;;;;;;;9.40;5.07;;;;;;;17.57;88.79;101549.22;7381626;19;20031;-66
2022/08/26 04:01:12;;;;;;;11.35;5.70;;;;;;;17.56;88.99;101552.88;7385509;19;20007;-65
2022/08/26 04:03:57;;;;;;;9.48;5.38;;;;;;;17.53;89.29;101551.41;7383299;19;20090;-65
2022/08/26 04:06:36;;;;;;;12.27;5.57;;;;;;;17.51;89.30;101547.28;7384610;19;20006;-65
2022/08/26 04:09:06;;;;;;;13.00;5.40;;;;;;;17.46;88.72;101544.34;7382786;19;20469;-65
2022/08/26 04:11:35;;;;;;;10.93;6.22;;;;;;;17.43;88.84;101547.34;7384970;19;20014;-65
2022/08/26 04:14:08;;;;;;;11.07;5.68;;;;;;;17.38;88.08;101550.53;7383231;19;20462;-65
2022/08/26 04:16:35;;;;;;;12.10;5.97;;;;;;;17.31;88.39;101544.31;7383555;19;20010;-66
2022/08/26 04:19:02;;;;;;;10.88;5.80;;;;;;;17.30;88.86;101544.47;7380164;19;20038;-66
2022/08/26 04:21:30;;;;;;;10.38;6.00;;;;;;;17.31;89.12;101546.13;7391649;19;20033;-64
2022/08/26 04:23:56;;;;;;;10.13;5.30;;;;;;;17.29;88.78;101540.97;7390819;19;20045;-64
2022/08/26 04:26:24;;;;;;;7.38;4.63;;;;;;;17.31;88.71;101546.13;7390781;19;20114;-66
2022/08/26 04:28:54;;;;;;;12.55;6.75;;;;;;;17.31;89.58;101544.31;7388962;19;20490;-66
2022/08/26 04:31:21;;;;;;;10.57;5.18;;;;;;;17.32;89.70;101545.94;7391419;19;20014;-66
2022/08/26 04:33:49;;;;;;;9.45;5.20;;;;;;;17.31;89.59;101549.63;7390741;19;20043;-68
2022/08/26 04:36:17;;;;;;;9.88;5.47;;;;;;;17.30;89.08;101537.31;7388450;19;20014;-62
2022/08/26 04:38:46;;;;;;;14.27;6.18;;;;;;;17.28;88.96;101546.47;7387579;19;20025;-63
2022/08/26 04:41:14;;;;;;;12.60;6.38;;;;;;;17.28;88.79;101544.63;7390570;19;20014;-64
2022/08/26 04:43:44;;;;;;;10.82;5.70;;;;;;;17.29;88.86;101543.63;7390323;19;20020;-63
2022/08/26 04:46:15;;;;;;;12.70;7.07;;;;;;;17.30;88.58;101536.50;7387641;19;20491;-64
2022/08/26 04:48:41;;;;;;;10.95;6.35;;;;;;;17.30;88.70;101536.50;7389252;19;20609;-66
2022/08/26 04:51:09;;;;;;;14.00;7.47;;;;;;;17.30;88.69;101539.97;7388543;19;20031;-66
2022/08/26 04:53:36;;;;;;;13.25;7.13;;;;;;;17.31;88.69;101540.81;7390595;19;20080;-66
2022/08/26 04:56:03;;;;;;;15.77;6.13;;;;;;;17.31;88.64;101535.50;7390557;19;20418;-66
2022/08/26 04:58:31;;;;;;;13.75;7.63;;;;;;;17.30;88.42;101533.81;7387340;19;20033;-66
2022/08/26 05:00:58;;;;;;;15.27;7.72;;;;;;;17.28;88.36;101533.16;7388255;19;20018;-66
2022/08/26 05:03:28;;;;;;;17.35;8.00;;;;;;;17.27;88.67;101539.53;7389969;19;20712;-66
2022/08/26 05:05:57;;;;;;;14.70;7.47;;;;;;;17.25;88.74;101542.34;7388904;19;20467;-65
2022/08/26 05:08:24;;;;;;;14.57;7.35;;;;;;;17.26;88.79;101548.50;7388818;19;20022;-65
2022/08/26 05:10:54;;;;;;;11.25;7.50;;;;;;;17.26;88.72;101545.84;7390127;19;20745;-66
2022/08/26 05:13:25;;;;;;;12.90;7.10;;;;;;;17.24;88.56;101546.00;7389170;19;20324;-66
2022/08/26 05:15:52;;;;;;;12.93;6.65;;;;;;;17.24;88.92;101539.84;7388806;19;20074;-66
2022/08/26 05:18:23;;;;;;;13.30;6.65;;;;;;;17.26;89.20;101536.03;7388813;19;20017;-65
2022/08/26 05:20:52;;;;;;;12.80;7.00;;;;;;;17.29;89.53;101540.97;7384555;19;20033;-67
2022/08/26 05:23:21;;;;;;;12.90;7.50;;;;;;;17.31;89.04;101538.97;7388710;19;20011;-66
2022/08/26 05:25:50;;;;;;;15.05;6.60;;;;;;;17.30;88.63;101539.16;7388146;19;20032;-65
2022/08/26 05:28:25;;;;;;;13.65;7.20;;;;;;;17.33;88.84;101546.75;7389468;19;20022;-64
2022/08/26 05:30:54;;;;;;;13.95;6.93;;;;;;;17.31;88.41;101546.13;7389001;19;20113;-65
2022/08/26 05:33:21;;;;;;;13.68;7.20;;;;;;;17.30;88.64;101542.63;7388971;19;20066;-64
2022/08/26 05:35:49;;;;;;;11.95;6.55;;;;;;;17.30;88.98;101547.13;7383207;19;20018;-63
2022/08/26 05:38:18;;;;;;;11.25;7.32;;;;;;;17.30;89.46;101550.63;7386669;19;20520;-64
2022/08/26 05:40:49;;;;;;;12.30;6.97;;;;;;;17.31;89.72;101544.31;7388905;19;20324;-65
2022/08/26 05:43:19;;;;;;;13.88;6.47;;;;;;;17.32;89.21;101550.44;7387171;19;20041;-64
2022/08/26 05:45:49;;;;;;;11.35;6.20;;;;;;;17.32;89.46;101547.78;7389089;19;20319;-62
2022/08/26 05:48:18;;;;;;;12.73;5.75;;;;;;;17.34;89.41;101545.75;7388242;19;20015;-63
2022/08/26 05:50:51;;;;;;;13.18;6.20;;;;;;;17.35;89.61;101550.91;7385239;19;20705;-64
2022/08/26 05:53:20;;;;;;;13.13;7.38;;;;;;;17.35;88.88;101552.75;7386462;19;20017;-64
2022/08/26 05:55:51;;;;;;;11.93;6.10;;;;;;;17.31;89.03;101552.28;7386703;19;20082;-64
2022/08/26 05:58:20;;;;;;;10.95;5.82;;;;;;;17.32;89.48;101550.44;7388354;19;20521;-64
2022/08/26 06:01:09;;;;;;;13.13;7.10;;;;;;;17.35;89.58;101548.25;7389464;19;20018;-64
2022/08/26 06:03:38;;;;;;;14.18;6.18;;;;;;;17.35;89.40;101558.06;7387703;19;20014;-64
2022/08/26 06:06:12;;;;;;;10.27;5.95;;;;;;;17.37;89.30;101556.06;7384548;19;20018;-64
2022/08/26 06:08:39;;;;;;;12.98;7.72;;;;;;;17.40;89.11;101556.53;7388324;19;20432;-63
2022/08/26 06:11:10;;;;;;;8.90;5.47;;;;;;;17.43;89.25;101558.81;7385142;19;20014;-64
2022/08/26 06:13:45;;;;;;;11.07;6.18;;;;;;;17.43;88.07;101553.50;7385348;19;20550;-64
2022/08/26 06:16:16;;;;;;;14.65;6.28;;;;;;;17.43;88.21;101552.66;7387819;19;20021;-63
2022/08/26 06:18:45;;;;;;;12.45;6.10;;;;;;;17.45;88.26;101550.66;7387536;19;20007;-62
2022/08/26 06:21:19;;;;;;;10.23;6.05;;;;;;;17.47;87.99;101546.00;7385531;19;20074;-63
2022/08/26 06:26:34;;;;;;;13.18;6.53;;;;;;;17.50;87.72;101558.94;7386112;19;20066;-66
2022/08/26 06:29:03;;;;;;;11.57;6.20;;;;;;;17.54;88.22;101558.38;7385217;19;20427;-66
2022/08/26 06:31:35;;;;;;;15.10;5.97;;;;;;;17.59;87.90;101565.00;7388256;19;20485;-67
2022/08/26 06:34:03;;;;;;;13.23;6.30;;;;;;;17.65;87.97;101564.31;7384326;19;20676;-65
2022/08/26 06:36:38;;;;;;;13.18;5.47;;;;;;;17.71;88.33;101566.25;7385634;19;20015;-66
2022/08/26 06:39:08;;;;;;;10.65;6.03;;;;;;;17.75;87.78;101572.88;7380966;19;20414;-66
2022/08/26 06:41:37;;;;;;;9.68;5.55;;;;;;;17.79;84.12;101576.81;7385400;19;20027;-65
2022/08/26 06:44:09;;;;;;;12.10;5.80;;;;;;;17.83;84.33;101570.13;7382042;19;20010;-63
2022/08/26 06:46:36;;;;;;;12.48;5.95;;;;;;;17.87;84.30;101568.78;7386816;19;20010;-65
2022/08/26 06:49:04;;;;;;;9.40;5.72;;;;;;;17.93;84.24;101566.19;7382985;19;20053;-63
2022/08/26 06:51:34;;;;;;;11.07;6.53;;;;;;;18.00;84.04;101563.63;7386248;19;20025;-63
2022/08/26 06:54:03;;;;;;;15.15;7.13;;;;;;;18.02;83.59;101564.28;7384853;19;20093;-63
2022/08/26 06:56:39;;;;;;;11.02;6.00;;;;;;;18.06;83.30;101570.06;7386081;19;20514;-64
2022/08/26 06:59:08;;;;;;;14.88;6.45;;;;;;;18.05;83.38;101571.06;7383098;19;20035;-64
2022/08/26 07:01:43;;;;;;;10.02;6.00;;;;;;;18.08;82.30;101578.69;7383974;19;20518;-64
2022/08/26 07:04:13;;;;;;;10.18;6.03;;;;;;;18.09;82.28;101569.69;7379631;19;20040;-64
2022/08/26 07:06:47;;;;;;;13.02;6.32;;;;;;;18.09;83.25;101573.16;7384471;19;20014;-64
2022/08/26 07:09:15;;;;;;;14.10;6.47;;;;;;;18.12;83.46;101567.50;7380662;19;20014;-64
2022/08/26 07:11:43;;;;;;;12.07;6.40;;;;;;;18.13;83.15;101569.16;7385156;19;20380;-63
2022/08/26 07:14:11;;;;;;;13.23;7.15;;;;;;;18.11;82.85;101568.50;7382521;19;20021;-63
2022/08/26 07:16:40;;;;;;;10.30;6.38;;;;;;;18.15;82.33;101567.13;7382394;19;20010;-64
2022/08/26 07:19:07;;;;;;;10.45;5.85;;;;;;;18.18;81.98;101568.59;7381265;19;20841;-64
2022/08/26 07:21:39;;;;;;;10.27;5.85;;;;;;;18.18;81.78;101568.59;7384184;19;20053;-64
2022/08/26 07:24:06;;;;;;;10.30;5.63;;;;;;;18.20;82.14;101569.22;7381480;19;20029;-62
2022/08/26 07:26:33;;;;;;;12.18;4.80;;;;;;;18.23;82.40;101563.53;7383596;19;20094;-65
2022/08/26 07:29:00;;;;;;;9.13;5.25;;;;;;;18.27;82.65;101573.66;7380513;19;20359;-64
2022/08/26 07:31:31;;;;;;;12.68;4.38;;;;;;;18.32;82.25;101570.44;7383133;19;20014;-65
2022/08/26 07:34:09;;;;;;;9.25;4.68;;;;;;;18.38;80.08;101578.50;7379257;19;20133;-65
2022/08/26 07:36:36;;;;;;;10.02;4.60;;;;;;;18.44;81.15;101576.13;7382645;19;20459;-65
2022/08/26 07:39:04;;;;;;;10.27;3.92;;;;;;;18.51;81.80;101579.69;7376827;19;20018;-65
2022/08/26 07:41:32;;;;;;;11.50;4.80;;;;;;;18.53;80.51;101577.66;7383996;19;20507;-64
2022/08/26 07:43:59;;;;;;;9.30;3.83;;;;;;;18.54;78.02;101576.69;7377576;19;20011;-64
2022/08/26 07:46:26;;;;;;;13.70;3.78;;;;;;;18.60;77.64;101579.41;7382894;19;20019;-65
2022/08/26 07:48:57;;;;;;;8.75;3.45;;;;;;;18.68;77.03;101575.81;7379548;19;20023;-63
2022/08/26 07:51:25;;;;;;;8.38;3.72;;;;;;;18.76;78.50;101581.03;7381405;19;20007;-64
2022/08/26 07:53:53;;;;;;;7.55;3.17;;;;;;;18.84;78.15;101572.13;7381942;19;20019;-63
2022/08/26 07:56:21;;;;;;;8.05;3.35;;;;;;;18.93;77.65;101576.31;7389571;19;20510;-64
2022/08/26 07:58:52;;;;;;;8.30;3.20;;;;;;;19.01;75.45;101574.34;7389184;19;20046;-64
2022/08/26 08:01:22;;;;;;;9.75;3.20;;;;;;;19.11;75.50;101577.53;7388351;19;20021;-64
2022/08/26 08:03:50;;;;;;;8.50;3.38;;;;;;;19.16;74.71;101575.09;7389075;19;20025;-63
2022/08/26 08:06:24;;;;;;;9.85;3.45;;;;;;;19.19;74.79;101585.41;7389789;19;20011;-65
2022/08/26 08:08:56;;;;;;;7.05;3.17;;;;;;;19.22;73.92;101573.53;7389272;19;20014;-65
2022/08/26 08:11:26;;;;;;;10.05;2.92;;;;;;;19.23;73.53;101581.34;7388938;19;20105;-65
2022/08/26 08:13:54;;;;;;;7.75;3.17;;;;;;;19.25;73.84;101569.66;7389023;19;20014;-65
2022/08/26 08:16:28;;;;;;;5.57;2.65;;;;;;;19.27;74.30;101571.09;7391192;19;20514;-66
2022/08/26 08:18:59;;;;;;;8.10;2.60;;;;;;;19.30;74.57;101570.72;7385605;19;20457;-66
2022/08/26 08:21:29;;;;;;;9.60;3.55;;;;;;;19.36;75.29;101569.13;7387397;19;20021;-65
2022/08/26 08:23:56;;;;;;;8.57;4.10;;;;;;;19.42;75.97;101568.34;7388942;19;20014;-65
2022/08/26 08:26:25;;;;;;;9.27;3.97;;;;;;;19.44;76.30;101561.84;7392568;19;20816;-66
2022/08/26 08:28:56;;;;;;;6.90;4.13;;;;;;;19.49;76.76;101564.78;7387963;19;20025;-65
2022/08/26 08:31:29;;;;;;;6.78;3.70;;;;;;;19.55;76.58;101568.53;7392017;19;20024;-66
2022/08/26 08:34:16;;;;;;;8.38;3.63;;;;;;;19.58;76.23;101568.94;7386565;19;20330;-66
2022/08/26 08:36:45;;;;;;;8.90;4.53;;;;;;;19.59;76.35;101569.78;7390194;19;20229;-67
2022/08/26 08:39:12;;;;;;;8.15;3.58;;;;;;;19.61;76.62;101568.56;7385594;19;20015;-64
2022/08/26 08:42:05;;;;;;;9.05;4.35;;;;;;;19.60;76.18;101572.25;7389538;19;20097;-66
2022/08/26 08:44:32;;;;;;;9.52;3.97;;;;;;;19.63;75.73;101566.53;7387757;19;20014;-65
2022/08/26 08:47:26;;;;;;;7.88;3.25;;;;;;;19.69;75.87;101570.25;7390859;19;20011;-65
2022/08/26 08:49:59;;;;;;;8.93;3.85;;;;;;;19.75;76.23;101572.16;7386443;19;20089;-65
2022/08/26 08:52:34;;;;;;;;;;;;;;;19.78;75.93;101573.59;7390596;19;20494;-65
2022/08/26 08:55:04;;;;;;;7.45;4.10;;;;;;;19.78;75.42;101576.28;7388761;19;19925;-66
2022/08/26 08:58:12;;;;;;;8.18;4.50;;;;;;;19.82;75.31;101572.19;7390726;19;20470;-66
2022/08/26 09:00:53;;;;;;;7.90;3.75;;;;;;;19.87;75.49;101575.94;7387530;19;20014;-66
2022/08/26 09:04:11;;;;;;;5.95;3.92;;;;;;;19.91;74.97;101566.50;7389259;19;20010;-65
2022/08/26 09:06:45;;;;;;;8.75;4.05;;;;;;;19.95;74.96;101572.31;7384469;19;20030;-66
2022/08/26 09:09:54;;;;;;;11.10;3.85;;;;;;;19.98;73.32;101572.72;7387467;19;20403;-66
2022/08/26 09:12:24;;;;;;;10.05;3.97;;;;;;;20.02;73.43;101573.16;7385277;19;20014;-66
2022/08/26 09:15:15;;;;;;;9.00;4.45;;;;;;;20.08;73.96;101564.34;7385691;19;20026;-64
2022/08/26 09:17:47;;;;;;;8.93;4.43;;;;;;;20.15;74.20;101577.75;7384969;19;20006;-64
2022/08/26 09:20:32;;;;;;;12.90;4.95;;;;;;;20.20;72.28;101569.97;7383906;19;20017;-64
2022/08/26 09:22:59;;;;;;;14.20;5.10;;;;;;;20.26;71.87;101571.88;7387860;19;20106;-64
2022/08/26 09:25:26;;;;;;;10.43;4.10;;;;;;;20.32;72.15;101571.06;7388317;19;20479;-64
2022/08/26 09:27:53;;;;;;;10.90;4.63;;;;;;;20.40;72.42;101571.75;7388415;19;20018;-65
2022/08/26 09:30:29;;;;;;;12.05;4.75;;;;;;;20.52;71.32;101569.31;7386167;19;20128;-66
2022/08/26 09:33:05;;;;;;;8.95;4.63;;;;;;;20.58;70.58;101573.88;7389213;19;20443;-66
2022/08/26 09:35:45;;;;;;;9.40;4.30;;;;;;;20.64;70.16;101577.59;7383319;19;20011;-62
2022/08/26 09:38:32;;;;;;;9.00;4.45;;;;;;;20.66;70.26;101572.88;7386498;19;20018;-63
2022/08/26 09:41:03;;;;;;;8.70;2.92;;;;;;;20.71;69.20;101567.75;7384769;19;20568;-64
2022/08/26 09:43:30;;;;;;;5.10;2.53;;;;;;;20.77;69.78;101570.47;7386510;19;20109;-64
2022/08/26 09:46:21;;;;;;;8.38;2.30;;;;;;;20.85;68.54;101574.78;7388219;19;20403;-64
2022/08/26 09:48:49;;;;;;;10.20;2.63;;;;;;;20.90;67.34;101573.16;7384614;19;20022;-63
2022/08/26 09:51:25;;;;;;;6.45;2.20;;;;;;;20.99;65.11;101564.94;7385547;19;20479;-64
2022/08/26 09:53:55;;;;;;;4.07;1.25;;;;;;;21.04;65.00;101571.34;7385600;19;20018;-65
2022/08/26 09:56:22;;;;;;;7.93;2.08;;;;;;;21.09;65.18;101566.19;7388293;19;20025;-64
2022/08/26 09:58:49;;;;;;;5.43;1.40;;;;;;;21.15;64.90;101570.78;7386209;19;20328;-63
2022/08/26 10:01:22;;;;;;;5.32;1.42;;;;;;;21.27;65.74;101565.66;7384903;19;20031;-64
2022/08/26 10:03:50;;;;;;;8.02;1.58;;;;;;;21.33;64.61;101565.63;7385218;19;20025;-64
2022/08/26 10:06:17;;;;;;;4.97;1.20;;;;;;;21.41;65.25;101561.94;7387252;19;20022;-64
2022/08/26 10:08:57;;;;;;;4.97;1.83;;;;;;;21.47;62.75;101569.16;7385243;19;20098;-63
2022/08/26 10:11:48;;;;;;;4.82;1.33;;;;;;;21.53;61.38;101565.66;7387139;19;20010;-66
2022/08/26 10:14:45;;;;;;;5.80;1.58;;;;;;;21.62;60.66;101569.78;7385630;19;20069;-66
2022/08/26 10:17:27;;;;;;;9.25;2.15;;;;;;;21.68;62.59;101568.94;7386822;19;20447;-65
2022/08/26 10:20:00;;;;;;;7.70;1.30;;;;;;;21.69;61.44;101570.56;7382473;19;20018;-66
2022/08/26 10:22:46;;;;;;;4.13;1.10;;;;;;;21.73;61.00;101568.31;7387054;19;20018;-66
2022/08/26 10:25:20;;;;;;;5.43;2.05;;;;;;;21.73;60.96;101566.47;7385341;19;20006;-67
2022/08/26 10:28:10;;;;;;;5.88;2.42;;;;;;;21.74;60.34;101568.09;7385170;19;20648;-65
2022/08/26 10:30:49;;;;;;;6.80;1.55;;;;;;;21.71;60.36;101567.69;7386643;19;20014;-66
2022/08/26 10:33:17;;;;;;;8.07;1.63;;;;;;;21.69;61.68;101567.91;7384770;19;20033;-67
2022/08/26 10:35:51;;;;;;;8.25;3.05;;;;;;;21.71;61.18;101557.81;7384389;19;20460;-64
2022/08/26 10:38:28;;;;;;;7.18;1.63;;;;;;;21.73;60.10;101558.44;7381924;19;20363;-66
2022/08/26 10:41:12;;;;;;;5.63;1.77;;;;;;;21.81;60.29;101551.19;7382287;19;20505;-66
2022/08/26 10:43:50;;;;;;;4.47;1.33;;;;;;;21.86;59.27;101551.38;7384052;19;20485;-66
2022/08/26 10:46:24;;;;;;;4.43;1.73;;;;;;;21.95;59.38;101550.16;7384696;19;20026;-66
2022/08/26 10:49:05;;;;;;;5.72;1.20;;;;;;;21.97;58.78;101545.41;7383609;19;20042;-65
2022/08/26 10:51:40;;;;;;;9.07;3.15;;;;;;;22.03;59.94;101539.22;7385570;19;20014;-65
2022/08/26 10:54:18;;;;;;;12.43;1.60;;;;;;;22.08;59.37;101545.59;7383273;19;20169;-65
2022/08/26 10:57:16;;;;;;;7.28;1.65;;;;;;;22.17;58.91;101544.34;7382949;19;20069;-67
2022/08/26 11:03:34;;;;;;;5.43;1.70;;;;;;;22.34;58.30;101542.00;7382088;19;20497;-68
2022/08/26 11:06:26;;;;;;;6.85;1.45;;;;;;;22.47;58.26;101546.47;7379485;19;20049;-66
2022/08/26 11:09:05;;;;;;;9.77;1.63;;;;;;;22.53;57.49;101537.59;7381691;19;20023;-66
2022/08/26 11:11:38;;;;;;;4.95;1.30;;;;;;;22.55;55.80;101541.69;7383793;19;20002;-66
2022/08/26 11:14:18;;;;;;;7.25;1.10;;;;;;;22.54;56.66;101532.00;7380083;19;20304;-66
2022/08/26 11:16:58;;;;;;;5.43;1.10;;;;;;;22.55;56.73;101539.00;7385819;19;20018;-66
2022/08/26 11:19:34;;;;;;;4.75;1.40;;;;;;;22.55;57.04;101538.22;7380738;19;20015;-67
2022/08/26 11:22:27;;;;;;;3.75;1.13;;;;;;;22.53;56.27;101533.03;7383350;19;20299;-66
2022/08/26 11:25:07;;;;;;;6.53;1.50;;;;;;;22.56;55.56;101529.09;7383595;19;20083;-66
2022/08/26 11:27:37;;;;;;;6.13;1.60;;;;;;;22.55;55.01;101532.84;7383886;19;20077;-65
2022/08/26 11:30:11;;;;;;;3.83;1.30;;;;;;;22.54;54.80;101528.50;7381633;19;20392;-66
2022/08/26 11:32:39;;;;;;;5.95;2.17;;;;;;;22.48;54.59;101526.66;7382009;19;20018;-66
2022/08/26 11:35:22;;;;;;;9.90;3.22;;;;;;;22.45;55.95;101527.09;7380559;19;20275;-66
2022/08/26 11:37:56;;;;;;;3.63;1.38;;;;;;;22.36;56.61;101523.00;7382241;19;20043;-66
2022/08/26 11:40:29;;;;;;;4.63;1.10;;;;;;;22.34;55.99;101519.72;7382228;19;20021;-67
2022/08/26 11:43:18;;;;;;;5.00;1.13;;;;;;;22.39;55.80;101519.91;7324688;19;20014;-65
2022/08/26 11:46:07;;;;;;;8.70;1.30;;;;;;;22.48;55.42;101522.13;7380321;19;20037;-65
2022/08/26 11:48:43;;;;;;;6.22;0.80;;;;;;;22.58;55.42;101511.75;7380616;19;20660;-66
2022/08/26 11:51:19;;;;;;;3.10;1.00;;;;;;;22.68;55.55;101516.66;7379817;19;20021;-66
2022/08/26 11:53:46;;;;;;;5.53;1.38;;;;;;;22.73;55.39;101506.13;7377219;19;20007;-66